Time;durP1;ratioP1;P1;durP2;ratioP2;P2;SDS_P1;SDS_P2;PMS_P1;PMS_P2;Temp;Humidity;BMP_temperature;BMP_pressure;BME280_temperature;BME280_humidity;BME280_pressure;Samples;Min_cycle;Max_cycle;Signal;HPM_P1;HPM_P2
2023/09/04 00:01:56;;;;;;;;;;;16.90;99.90;;;;;;5096568;28;19916;-66
2023/09/04 00:04:22;;;;;;;;;;;17.10;99.90;;;;;;5095925;28;20006;-67
2023/09/04 00:06:49;;;;;;;;;;;17.30;99.90;;;;;;5099070;28;19959;-66
2023/09/04 00:09:15;;;;;;;;;;;17.40;99.90;;;;;;5113092;28;19964;-68
2023/09/04 00:11:42;;;;;;;;;;;17.40;99.90;;;;;;5109915;28;19949;-70
2023/09/04 00:14:09;;;;;;;;;;;17.50;99.90;;;;;;5111763;28;20010;-67
2023/09/04 00:16:35;;;;;;;;;;;17.60;99.90;;;;;;5111071;28;19957;-68
2023/09/04 00:19:02;;;;;;;;;;;17.70;99.90;;;;;;5111770;28;20364;-67
2023/09/04 00:21:28;;;;;;;;;;;18.00;99.90;;;;;;5111656;28;19953;-70
2023/09/04 00:23:55;;;;;;;;;;;18.10;99.90;;;;;;5111879;28;20478;-72
2023/09/04 00:26:22;;;;;;;;;;;18.20;99.90;;;;;;5100643;28;19986;-67
2023/09/04 00:28:49;;;;;;;;;;;18.30;99.90;;;;;;5105223;28;19916;-71
2023/09/04 00:31:15;;;;;;;;;;;18.40;99.90;;;;;;5106919;28;20441;-68
2023/09/04 00:33:42;;;;;;;;;;;18.40;99.90;;;;;;5111159;28;20345;-70
2023/09/04 00:36:08;;;;;;;;;;;18.50;99.90;;;;;;5111745;28;19915;-69
2023/09/04 00:38:35;;;;;;;;;;;18.40;99.90;;;;;;5108949;28;19934;-71
2023/09/04 00:41:02;;;;;;;;;;;18.50;99.90;;;;;;5108927;28;20287;-70
2023/09/04 00:43:37;;;;;;;;;;;18.70;99.90;;;;;;5092815;28;19919;-67
2023/09/04 00:46:04;;;;;;;;;;;18.70;99.90;;;;;;5107225;28;19965;-66
2023/09/04 00:48:33;;;;;;;;;;;18.90;99.90;;;;;;5110089;28;19924;-68
2023/09/04 00:51:00;;;;;;;;;;;18.80;99.90;;;;;;5111774;28;19943;-68
2023/09/04 00:53:27;;;;;;;;;;;19.00;99.90;;;;;;5111560;28;20318;-68
2023/09/04 00:55:54;;;;;;;;;;;19.10;99.90;;;;;;5092871;28;19919;-71
2023/09/04 00:58:20;;;;;;;;;;;19.20;99.90;;;;;;5078447;28;20356;-71
2023/09/04 01:00:47;;;;;;;;;;;19.30;99.90;;;;;;5100951;28;19911;-70
2023/09/04 01:03:14;;;;;;;;;;;19.40;99.90;;;;;;5105576;28;20357;-71
2023/09/04 01:05:41;;;;;;;;;;;19.50;99.90;;;;;;5110927;28;20368;-66
2023/09/04 01:08:08;;;;;;;;;;;19.60;99.90;;;;;;5111066;28;19927;-67
2023/09/04 01:10:39;;;;;;;;;;;19.60;99.90;;;;;;5111870;28;20315;-68
2023/09/04 01:13:17;;;;;;;;;;;19.80;99.90;;;;;;5107771;28;19915;-68
2023/09/04 01:15:44;;;;;;;;;;;19.80;99.90;;;;;;5112184;28;19908;-69
2023/09/04 01:18:11;;;;;;;;;;;19.90;99.90;;;;;;5111943;28;19908;-68
2023/09/04 01:20:37;;;;;;;;;;;19.90;99.90;;;;;;5111801;28;19915;-68
2023/09/04 01:23:04;;;;;;;;;;;19.90;99.90;;;;;;5111702;28;19908;-67
2023/09/04 01:25:33;;;;;;;;;;;20.10;99.90;;;;;;5111779;28;19908;-69
2023/09/04 01:28:10;;;;;;;;;;;20.20;99.90;;;;;;5112529;28;19916;-70
2023/09/04 01:30:47;;;;;;;;;;;20.40;99.90;;;;;;5111658;28;19968;-70
2023/09/04 01:33:18;;;;;;;;;;;20.60;99.90;;;;;;5106512;28;19923;-68
2023/09/04 01:35:45;;;;;;;;;;;20.50;99.90;;;;;;5091476;28;20006;-68
2023/09/04 01:38:12;;;;;;;;;;;20.60;99.90;;;;;;5091348;28;20361;-68
2023/09/04 01:40:39;;;;;;;;;;;20.40;99.90;;;;;;5108733;28;19957;-69
2023/09/04 01:43:05;;;;;;;;;;;20.50;99.90;;;;;;5095827;28;19916;-66
2023/09/04 01:45:32;;;;;;;;;;;20.60;99.90;;;;;;5074444;28;19981;-69
2023/09/04 01:47:59;;;;;;;;;;;20.70;99.90;;;;;;5094151;28;20026;-69
2023/09/04 01:50:25;;;;;;;;;;;20.80;99.90;;;;;;5111047;28;19936;-68
2023/09/04 01:52:52;;;;;;;;;;;21.00;99.90;;;;;;5110456;28;20489;-67
2023/09/04 01:55:19;;;;;;;;;;;21.20;99.90;;;;;;5104304;28;19912;-67
2023/09/04 01:57:45;;;;;;;;;;;21.10;99.90;;;;;;5111234;28;20283;-67
2023/09/04 02:00:12;;;;;;;;;;;21.20;99.90;;;;;;5110083;28;20019;-66
2023/09/04 02:02:39;;;;;;;;;;;21.50;99.40;;;;;;5110876;28;19912;-66
2023/09/04 02:05:06;;;;;;;;;;;21.40;99.30;;;;;;5110361;28;19919;-69
2023/09/04 02:07:32;;;;;;;;;;;21.60;99.70;;;;;;5103003;28;20364;-67
2023/09/04 02:09:59;;;;;;;;;;;21.80;98.90;;;;;;5115266;28;19915;-66
2023/09/04 02:12:25;;;;;;;;;;;21.90;98.80;;;;;;5110900;28;19918;-67
2023/09/04 02:14:52;;;;;;;;;;;22.00;98.80;;;;;;5105960;28;19915;-68
2023/09/04 02:17:19;;;;;;;;;;;22.00;98.40;;;;;;5115587;28;20284;-68
2023/09/04 02:19:45;;;;;;;;;;;22.10;98.40;;;;;;5115780;28;20399;-67
2023/09/04 02:22:12;;;;;;;;;;;22.00;98.00;;;;;;5114813;28;20396;-67
2023/09/04 02:24:39;;;;;;;;;;;21.80;98.50;;;;;;5112948;28;19991;-68
2023/09/04 02:27:05;;;;;;;;;;;21.50;99.20;;;;;;5113252;28;19916;-67
2023/09/04 02:29:32;;;;;;;;;;;21.60;99.50;;;;;;5113715;28;20261;-68
2023/09/04 02:31:59;;;;;;;;;;;22.10;99.50;;;;;;5113599;28;19912;-68
2023/09/04 02:34:26;;;;;;;;;;;22.50;98.70;;;;;;5113878;28;20091;-67
2023/09/04 02:36:52;;;;;;;;;;;22.50;97.70;;;;;;5113514;28;19925;-67
2023/09/04 02:39:19;;;;;;;;;;;22.40;98.20;;;;;;5115198;28;20353;-66
2023/09/04 02:41:46;;;;;;;;;;;22.80;97.60;;;;;;5115219;28;19908;-68
2023/09/04 02:44:12;;;;;;;;;;;22.90;97.20;;;;;;5114906;28;19912;-69
2023/09/04 02:46:39;;;;;;;;;;;23.70;96.60;;;;;;5112573;28;19973;-68
2023/09/04 02:49:05;;;;;;;;;;;24.70;95.00;;;;;;5108835;28;19916;-66
2023/09/04 02:51:32;;;;;;;;;;;25.10;93.70;;;;;;5094541;28;19955;-69
2023/09/04 02:53:59;;;;;;;;;;;25.30;94.50;;;;;;5095291;28;19916;-68
2023/09/04 02:56:25;;;;;;;;;;;26.60;92.80;;;;;;5093554;28;19912;-68
2023/09/04 02:58:52;;;;;;;;;;;27.90;91.10;;;;;;5096573;28;19919;-69
2023/09/04 03:01:18;;;;;;;;;;;28.90;88.40;;;;;;5114533;28;19912;-66
2023/09/04 03:03:46;;;;;;;;;;;29.50;85.30;;;;;;5105425;28;20327;-67
2023/09/04 03:06:12;;;;;;;;;;;30.40;81.60;;;;;;5108701;28;20354;-68
2023/09/04 03:08:39;;;;;;;;;;;30.30;81.70;;;;;;5101749;28;20402;-69
2023/09/04 03:11:10;;;;;;;;;;;30.60;78.80;;;;;;5114076;28;19912;-66
2023/09/04 03:13:37;;;;;;;;;;;30.80;79.10;;;;;;5113665;28;20348;-66
2023/09/04 03:16:05;;;;;;;;;;;31.10;77.10;;;;;;5109517;28;19908;-67
2023/09/04 03:18:35;;;;;;;;;;;31.00;76.30;;;;;;5107561;28;19912;-67
2023/09/04 03:21:02;;;;;;;;;;;31.20;76.30;;;;;;5112605;28;20006;-68
2023/09/04 03:23:29;;;;;;;;;;;30.80;77.50;;;;;;5113834;28;19908;-68
2023/09/04 03:25:56;;;;;;;;;;;31.80;74.40;;;;;;5114081;28;19911;-66
2023/09/04 03:28:23;;;;;;;;;;;31.90;73.00;;;;;;5112904;28;20018;-68
2023/09/04 03:30:50;;;;;;;;;;;31.20;74.50;;;;;;5113442;28;19947;-68
2023/09/04 03:33:16;;;;;;;;;;;30.80;74.60;;;;;;5113367;28;19911;-70
2023/09/04 03:35:43;;;;;;;;;;;31.50;74.40;;;;;;5113689;28;20407;-67
2023/09/04 03:38:10;;;;;;;;;;;31.40;74.10;;;;;;5112912;28;19907;-68
2023/09/04 03:40:37;;;;;;;;;;;31.70;73.20;;;;;;5094845;28;19987;-69
2023/09/04 03:43:03;;;;;;;;;;;31.50;73.40;;;;;;5105343;28;20303;-69
2023/09/04 03:45:33;;;;;;;;;;;30.90;74.40;;;;;;5113331;28;19908;-68
2023/09/04 03:48:00;;;;;;;;;;;30.60;74.60;;;;;;5112806;28;19916;-69
2023/09/04 03:50:27;;;;;;;;;;;31.20;74.00;;;;;;5113282;28;19908;-70
2023/09/04 03:52:54;;;;;;;;;;;31.90;73.00;;;;;;5112499;28;20330;-67
2023/09/04 03:55:21;;;;;;;;;;;33.00;71.50;;;;;;5108606;28;19918;-69
2023/09/04 03:57:48;;;;;;;;;;;32.30;71.60;;;;;;5121206;27;19916;-68
2023/09/04 04:00:16;;;;;;;;;;;32.00;71.30;;;;;;5113103;28;20364;-71
2023/09/04 04:02:44;;;;;;;;;;;31.60;72.30;;;;;;5112878;28;20403;-68
2023/09/04 04:05:14;;;;;;;;;;;31.00;72.10;;;;;;5112081;28;19907;-68
2023/09/04 04:07:42;;;;;;;;;;;30.70;74.40;;;;;;5113200;28;19927;-69
2023/09/04 04:10:09;;;;;;;;;;;30.30;73.40;;;;;;5112848;28;19995;-68
2023/09/04 04:12:35;;;;;;;;;;;30.30;74.10;;;;;;5113118;28;20310;-68
2023/09/04 04:15:05;;;;;;;;;;;30.60;74.20;;;;;;5091292;28;19908;-68
2023/09/04 04:17:32;;;;;;;;;;;30.50;74.80;;;;;;5091123;28;19919;-69
2023/09/04 04:19:59;;;;;;;;;;;29.80;74.70;;;;;;5111123;28;19922;-68
2023/09/04 04:22:25;;;;;;;;;;;30.70;73.80;;;;;;5112571;28;20031;-68
2023/09/04 04:24:52;;;;;;;;;;;28.60;77.00;;;;;;5112958;28;19953;-66
2023/09/04 04:27:19;;;;;;;;;;;29.00;76.70;;;;;;5112666;28;19968;-69
2023/09/04 04:29:46;;;;;;;;;;;30.20;75.10;;;;;;5112936;28;20356;-69
2023/09/04 04:32:14;;;;;;;;;;;30.20;74.40;;;;;;5112468;28;20356;-70
2023/09/04 04:34:41;;;;;;;;;;;29.30;75.10;;;;;;5108576;28;20280;-70
2023/09/04 04:37:08;;;;;;;;;;;27.90;78.50;;;;;;5110242;28;19919;-69
2023/09/04 04:39:34;;;;;;;;;;;26.90;82.20;;;;;;5112805;28;19908;-71
2023/09/04 04:42:01;;;;;;;;;;;27.80;80.60;;;;;;5112604;28;19915;-70
2023/09/04 04:44:28;;;;;;;;;;;28.90;78.60;;;;;;5109975;28;19908;-68
2023/09/04 04:46:54;;;;;;;;;;;30.70;75.70;;;;;;5114440;27;20367;-70
2023/09/04 04:49:21;;;;;;;;;;;30.40;74.00;;;;;;5127639;27;20228;-68
2023/09/04 04:51:51;;;;;;;;;;;29.50;77.30;;;;;;5112007;28;19951;-69
2023/09/04 04:54:19;;;;;;;;;;;29.30;77.40;;;;;;5112174;28;19939;-68
2023/09/04 04:56:48;;;;;;;;;;;29.80;77.70;;;;;;5112421;28;19946;-68
2023/09/04 04:59:15;;;;;;;;;;;29.90;76.20;;;;;;5111884;28;19915;-69
2023/09/04 05:01:42;;;;;;;;;;;29.80;77.10;;;;;;5112469;28;20002;-67
2023/09/04 05:04:09;;;;;;;;;;;30.00;76.70;;;;;;5112713;28;19947;-68
2023/09/04 05:06:35;;;;;;;;;;;30.70;75.10;;;;;;5112284;28;19930;-69
2023/09/04 05:09:03;;;;;;;;;;;30.10;74.10;;;;;;5112709;28;19922;-70
2023/09/04 05:11:30;;;;;;;;;;;30.00;75.60;;;;;;5111422;28;19908;-70
2023/09/04 05:13:57;;;;;;;;;;;30.10;75.30;;;;;;5111715;28;19915;-70
2023/09/04 05:16:24;;;;;;;;;;;29.90;76.10;;;;;;5093427;28;19912;-70
2023/09/04 05:18:50;;;;;;;;;;;30.70;74.60;;;;;;5073904;28;19908;-71
2023/09/04 05:21:17;;;;;;;;;;;30.60;74.00;;;;;;5110791;28;19958;-70
2023/09/04 05:23:44;;;;;;;;;;;30.10;75.20;;;;;;5111372;28;19907;-71
2023/09/04 05:26:10;;;;;;;;;;;29.90;77.20;;;;;;5107484;28;20374;-69
2023/09/04 05:28:37;;;;;;;;;;;30.80;75.00;;;;;;5111924;28;19969;-70
2023/09/04 05:31:06;;;;;;;;;;;30.80;74.90;;;;;;5111075;28;19946;-70
2023/09/04 05:33:33;;;;;;;;;;;30.20;75.30;;;;;;5112151;28;19908;-68
2023/09/04 05:36:00;;;;;;;;;;;29.50;76.30;;;;;;5097687;28;19908;-67
2023/09/04 05:38:27;;;;;;;;;;;28.70;79.10;;;;;;5095747;28;19963;-69
2023/09/04 05:40:54;;;;;;;;;;;28.50;79.70;;;;;;5107465;28;19912;-69
2023/09/04 05:43:21;;;;;;;;;;;28.50;79.60;;;;;;5113924;28;20271;-71
2023/09/04 05:45:48;;;;;;;;;;;28.90;78.70;;;;;;5115731;28;19916;-71
2023/09/04 05:48:15;;;;;;;;;;;29.50;77.70;;;;;;5115577;28;20016;-72
2023/09/04 05:50:41;;;;;;;;;;;28.90;78.30;;;;;;5111650;28;19964;-69
2023/09/04 05:53:08;;;;;;;;;;;28.50;77.70;;;;;;5114667;28;20323;-68
2023/09/04 05:55:37;;;;;;;;;;;28.20;80.40;;;;;;5115002;28;19930;-68
2023/09/04 05:58:04;;;;;;;;;;;27.60;81.30;;;;;;5115568;28;19945;-68
2023/09/04 06:00:31;;;;;;;;;;;27.60;81.30;;;;;;5106250;28;19912;-70
2023/09/04 06:02:59;;;;;;;;;;;28.00;81.00;;;;;;5114393;28;19908;-73
2023/09/04 06:05:26;;;;;;;;;;;27.80;81.00;;;;;;5105243;28;19916;-70
2023/09/04 06:07:52;;;;;;;;;;;28.40;79.40;;;;;;5110329;28;20019;-70
2023/09/04 06:10:19;;;;;;;;;;;29.00;79.30;;;;;;5113947;28;19957;-67
2023/09/04 06:12:45;;;;;;;;;;;28.50;80.00;;;;;;5114406;28;19947;-70
2023/09/04 06:15:12;;;;;;;;;;;28.70;80.10;;;;;;5109911;28;19911;-69
2023/09/04 06:17:39;;;;;;;;;;;28.60;79.90;;;;;;5113115;28;20383;-71
2023/09/04 06:20:06;;;;;;;;;;;28.60;80.00;;;;;;5114193;28;20018;-70
2023/09/04 06:22:33;;;;;;;;;;;28.60;80.20;;;;;;5113818;28;19908;-68
2023/09/04 06:24:59;;;;;;;;;;;28.30;81.50;;;;;;5112255;27;20607;-69
2023/09/04 06:27:26;;;;;;;;;;;28.30;80.90;;;;;;5113475;28;19926;-69
2023/09/04 06:29:52;;;;;;;;;;;28.20;81.00;;;;;;5114149;28;20312;-70
2023/09/04 06:32:19;;;;;;;;;;;28.10;82.00;;;;;;5109802;27;19919;-72
2023/09/04 06:34:46;;;;;;;;;;;28.20;81.30;;;;;;5113811;28;19911;-68
2023/09/04 06:37:12;;;;;;;;;;;27.90;82.10;;;;;;5113631;28;20318;-70
2023/09/04 06:39:39;;;;;;;;;;;28.00;81.60;;;;;;5114226;28;19919;-69
2023/09/04 06:42:06;;;;;;;;;;;27.80;82.30;;;;;;5113883;28;19912;-67
2023/09/04 06:44:32;;;;;;;;;;;27.10;84.30;;;;;;5113585;27;20280;-70
2023/09/04 06:46:59;;;;;;;;;;;27.30;83.80;;;;;;5112382;28;19923;-68
2023/09/04 06:49:26;;;;;;;;;;;27.10;83.80;;;;;;5112231;28;19919;-68
2023/09/04 06:51:53;;;;;;;;;;;26.30;85.70;;;;;;5114322;28;19954;-68
2023/09/04 06:54:20;;;;;;;;;;;25.40;88.20;;;;;;5113703;27;20057;-67
2023/09/04 06:56:46;;;;;;;;;;;24.60;90.30;;;;;;5114121;28;19918;-71
2023/09/04 06:59:13;;;;;;;;;;;23.70;91.50;;;;;;5114522;27;19919;-70
2023/09/04 07:01:39;;;;;;;;;;;22.90;93.10;;;;;;5114657;28;19908;-70
2023/09/04 07:04:06;;;;;;;;;;;22.00;94.60;;;;;;5114147;28;19920;-68
2023/09/04 07:06:33;;;;;;;;;;;21.20;97.00;;;;;;5113667;28;19920;-70
2023/09/04 07:08:59;;;;;;;;;;;20.70;98.70;;;;;;5113724;28;19916;-68
2023/09/04 07:11:26;;;;;;;;;;;20.50;99.90;;;;;;5113185;28;19911;-68
2023/09/04 07:13:53;;;;;;;;;;;20.30;99.90;;;;;;5103609;28;19916;-73
2023/09/04 07:16:19;;;;;;;;;;;20.20;99.90;;;;;;5107426;28;19908;-66
2023/09/04 07:18:46;;;;;;;;;;;20.00;99.90;;;;;;5112760;28;19912;-69
2023/09/04 07:21:12;;;;;;;;;;;19.90;99.90;;;;;;5113497;28;19908;-67
2023/09/04 07:23:39;;;;;;;;;;;19.90;99.90;;;;;;5112837;28;19984;-68
2023/09/04 07:26:06;;;;;;;;;;;19.80;99.90;;;;;;5107905;28;19918;-67
2023/09/04 07:28:36;;;;;;;;;;;19.70;99.90;;;;;;5112039;28;19919;-67
2023/09/04 07:31:19;;;;;;;;;;;19.50;99.90;;;;;;5094359;28;19978;-67
2023/09/04 07:33:47;;;;;;;;;;;19.40;99.90;;;;;;5107228;28;19912;-67
2023/09/04 07:36:13;;;;;;;;;;;19.20;99.90;;;;;;5112618;28;19908;-67
2023/09/04 07:38:41;;;;;;;;;;;19.10;99.90;;;;;;5115615;27;20382;-68
2023/09/04 07:41:07;;;;;;;;;;;18.90;99.90;;;;;;5113115;28;19912;-68
2023/09/04 07:43:34;;;;;;;;;;;18.80;99.90;;;;;;5113775;28;19908;-68
2023/09/04 07:46:01;;;;;;;;;;;18.70;99.90;;;;;;5112307;28;19951;-68
2023/09/04 07:48:27;;;;;;;;;;;18.80;99.90;;;;;;5111464;27;19915;-71
2023/09/04 07:50:54;;;;;;;;;;;18.60;99.90;;;;;;5113332;28;19987;-68
2023/09/04 07:53:21;;;;;;;;;;;18.60;99.90;;;;;;5112982;28;19912;-71
2023/09/04 07:55:48;;;;;;;;;;;18.60;99.90;;;;;;5113182;27;19912;-71
2023/09/04 07:58:14;;;;;;;;;;;18.50;99.90;;;;;;5112963;28;20035;-68
2023/09/04 08:00:47;;;;;;;;;;;18.50;99.90;;;;;;5111723;28;19912;-66
2023/09/04 08:03:14;;;;;;;;;;;18.40;99.90;;;;;;5113849;28;19908;-66
2023/09/04 08:05:41;;;;;;;;;;;18.40;99.90;;;;;;5113319;27;20261;-69
2023/09/04 08:08:09;;;;;;;;;;;18.40;99.90;;;;;;5112792;28;20391;-66
2023/09/04 08:10:39;;;;;;;;;;;18.40;99.90;;;;;;5111314;28;20006;-65
2023/09/04 08:13:13;;;;;;;;;;;18.40;99.90;;;;;;5108767;28;19957;-69
2023/09/04 08:15:41;;;;;;;;;;;18.40;99.90;;;;;;5111284;28;20011;-71
2023/09/04 08:18:08;;;;;;;;;;;18.40;99.90;;;;;;5111064;28;19913;-68
2023/09/04 08:20:35;;;;;;;;;;;18.30;99.90;;;;;;5111040;28;19919;-67
2023/09/04 08:23:02;;;;;;;;;;;18.40;99.90;;;;;;5111077;28;19915;-66
2023/09/04 08:25:29;;;;;;;;;;;18.30;99.90;;;;;;5112360;28;19919;-68
2023/09/04 08:27:56;;;;;;;;;;;18.30;99.90;;;;;;5112601;28;19951;-67
2023/09/04 08:30:23;;;;;;;;;;;18.30;99.90;;;;;;5115497;27;20104;-68
2023/09/04 08:32:50;;;;;;;;;;;18.30;99.90;;;;;;5112786;28;20249;-68
2023/09/04 08:35:18;;;;;;;;;;;18.30;99.90;;;;;;5109373;27;20015;-66
2023/09/04 08:37:44;;;;;;;;;;;18.20;99.90;;;;;;5109922;28;19908;-72
2023/09/04 08:40:12;;;;;;;;;;;18.20;99.90;;;;;;5112465;28;20030;-67
2023/09/04 08:42:39;;;;;;;;;;;18.20;99.90;;;;;;5112229;28;20387;-65
2023/09/04 08:45:07;;;;;;;;;;;18.20;99.90;;;;;;5113057;28;20441;-65
2023/09/04 08:47:40;;;;;;;;;;;18.20;99.90;;;;;;5112287;28;20287;-67
2023/09/04 08:50:08;;;;;;;;;;;18.30;99.90;;;;;;5114491;28;19912;-66
2023/09/04 08:52:38;;;;;;;;;;;18.20;99.90;;;;;;5111368;28;20117;-65
2023/09/04 08:55:05;;;;;;;;;;;18.30;99.90;;;;;;5112424;28;19915;-65
2023/09/04 08:57:35;;;;;;;;;;;18.30;99.90;;;;;;5112043;28;19930;-66
2023/09/04 09:00:03;;;;;;;;;;;18.30;99.90;;;;;;5108654;28;20010;-66
2023/09/04 09:02:30;;;;;;;;;;;18.30;99.90;;;;;;5108744;28;19919;-66
2023/09/04 09:04:57;;;;;;;;;;;18.30;99.90;;;;;;5112417;27;20002;-67
2023/09/04 09:07:27;;;;;;;;;;;18.30;99.90;;;;;;5111980;28;19920;-65
2023/09/04 09:09:55;;;;;;;;;;;18.20;99.90;;;;;;5089581;28;20019;-68
2023/09/04 09:12:22;;;;;;;;;;;18.30;99.90;;;;;;5111724;28;20264;-66
2023/09/04 09:14:48;;;;;;;;;;;18.20;99.90;;;;;;5109042;28;20294;-69
2023/09/04 09:17:15;;;;;;;;;;;18.30;99.90;;;;;;5111689;28;19908;-66
2023/09/04 09:19:42;;;;;;;;;;;18.30;99.90;;;;;;5106448;28;20591;-66
2023/09/04 09:22:10;;;;;;;;;;;18.30;99.90;;;;;;5091131;28;20271;-68
2023/09/04 09:24:52;;;;;;;;;;;18.30;99.90;;;;;;5111695;28;19968;-66
2023/09/04 09:27:19;;;;;;;;;;;18.30;99.90;;;;;;5110142;28;20367;-68
2023/09/04 09:29:46;;;;;;;;;;;18.30;99.90;;;;;;5106159;28;19916;-66
2023/09/04 09:32:13;;;;;;;;;;;18.30;99.90;;;;;;5111514;28;20025;-65
2023/09/04 09:34:40;;;;;;;;;;;18.30;99.90;;;;;;5111350;28;19912;-71
2023/09/04 09:37:08;;;;;;;;;;;18.30;99.90;;;;;;5111795;28;19956;-68
2023/09/04 09:39:35;;;;;;;;;;;18.20;99.90;;;;;;5111033;28;20364;-68
2023/09/04 09:42:02;;;;;;;;;;;18.10;99.90;;;;;;5111599;28;19908;-68
2023/09/04 09:44:30;;;;;;;;;;;18.20;99.90;;;;;;5112133;28;20003;-66
2023/09/04 09:46:57;;;;;;;;;;;18.10;99.90;;;;;;5111520;28;19927;-68
2023/09/04 09:49:24;;;;;;;;;;;18.10;99.90;;;;;;5102685;28;19916;-67
2023/09/04 09:51:54;;;;;;;;;;;18.20;99.90;;;;;;5111279;28;20253;-68
2023/09/04 09:54:39;;;;;;;;;;;18.10;99.90;;;;;;5111749;28;19966;-69
2023/09/04 09:57:08;;;;;;;;;;;18.10;99.90;;;;;;5091869;28;19919;-67
2023/09/04 09:59:36;;;;;;;;;;;18.00;99.90;;;;;;5101381;28;19923;-67
2023/09/04 10:02:03;;;;;;;;;;;17.90;99.90;;;;;;5105901;28;20019;-69
2023/09/04 10:04:31;;;;;;;;;;;17.90;99.90;;;;;;5075140;28;20626;-66
2023/09/04 10:07:01;;;;;;;;;;;18.00;99.90;;;;;;5111639;28;19922;-67
2023/09/04 10:09:29;;;;;;;;;;;17.90;99.90;;;;;;5103889;28;19947;-65
2023/09/04 10:12:15;;;;;;;;;;;17.90;99.90;;;;;;5108173;28;19919;-70
2023/09/04 10:14:44;;;;;;;;;;;17.90;99.90;;;;;;5111390;28;20309;-67
2023/09/04 10:17:16;;;;;;;;;;;17.90;99.90;;;;;;5112130;28;19971;-68
2023/09/04 10:19:44;;;;;;;;;;;17.80;99.90;;;;;;5097576;28;20367;-67
2023/09/04 10:22:20;;;;;;;;;;;17.90;99.90;;;;;;5112832;28;20406;-67
2023/09/04 10:25:03;;;;;;;;;;;17.90;99.90;;;;;;5115435;28;20431;-67
2023/09/04 10:27:32;;;;;;;;;;;17.90;99.90;;;;;;5115535;28;19941;-65
2023/09/04 10:30:10;;;;;;;;;;;17.80;99.90;;;;;;5098590;28;19919;-66
2023/09/04 10:32:37;;;;;;;;;;;17.90;99.90;;;;;;5110599;28;19940;-68
2023/09/04 10:35:05;;;;;;;;;;;17.80;99.90;;;;;;5114897;27;20280;-66
2023/09/04 10:37:32;;;;;;;;;;;17.90;99.90;;;;;;5114703;28;19916;-68
2023/09/04 10:39:59;;;;;;;;;;;17.80;99.90;;;;;;5110312;27;20012;-69
2023/09/04 10:42:28;;;;;;;;;;;17.90;99.90;;;;;;5112757;28;19919;-66
2023/09/04 10:44:56;;;;;;;;;;;17.90;99.90;;;;;;5114534;28;19938;-69
2023/09/04 10:47:23;;;;;;;;;;;17.80;99.90;;;;;;5109596;28;19923;-68
2023/09/04 10:49:50;;;;;;;;;;;17.90;99.90;;;;;;5108457;27;19966;-66
2023/09/04 10:52:16;;;;;;;;;;;17.90;99.90;;;;;;5096363;28;19908;-68
2023/09/04 10:54:43;;;;;;;;;;;17.90;99.90;;;;;;5096161;28;19912;-65
2023/09/04 10:57:15;;;;;;;;;;;17.90;99.90;;;;;;5112970;28;19912;-65
2023/09/04 10:59:57;;;;;;;;;;;17.80;99.90;;;;;;5095185;27;19912;-66
2023/09/04 11:02:33;;;;;;;;;;;17.80;99.90;;;;;;5110385;28;19911;-64
2023/09/04 11:05:01;;;;;;;;;;;17.80;99.90;;;;;;5112694;28;19919;-69
2023/09/04 11:07:31;;;;;;;;;;;17.80;99.90;;;;;;5114465;28;19915;-67
2023/09/04 11:10:29;;;;;;;;;;;17.80;99.90;;;;;;5103495;28;19930;-66
2023/09/04 11:12:55;;;;;;;;;;;17.80;99.90;;;;;;5093883;28;19934;-68
2023/09/04 11:15:24;;;;;;;;;;;17.70;99.90;;;;;;5107972;28;20383;-67
2023/09/04 11:17:51;;;;;;;;;;;17.70;99.90;;;;;;5112731;28;19939;-69
2023/09/04 11:20:18;;;;;;;;;;;17.70;99.90;;;;;;5105851;28;20389;-66
2023/09/04 11:22:48;;;;;;;;;;;17.70;99.90;;;;;;5095973;28;19912;-68
2023/09/04 11:25:18;;;;;;;;;;;17.70;99.90;;;;;;5094589;28;19916;-66
2023/09/04 11:27:46;;;;;;;;;;;17.70;99.90;;;;;;5094328;28;19916;-66
2023/09/04 11:30:14;;;;;;;;;;;17.60;99.90;;;;;;5112365;28;19912;-70
2023/09/04 11:32:41;;;;;;;;;;;17.60;99.90;;;;;;5113927;28;20390;-69
2023/09/04 11:35:12;;;;;;;;;;;17.60;99.90;;;;;;5113418;28;19915;-71
2023/09/04 11:37:39;;;;;;;;;;;17.40;99.90;;;;;;5113863;28;19954;-66
2023/09/04 11:40:09;;;;;;;;;;;17.50;99.90;;;;;;5111045;28;19907;-66
2023/09/04 11:42:36;;;;;;;;;;;17.40;99.90;;;;;;5112041;28;19912;-67
2023/09/04 11:45:04;;;;;;;;;;;17.40;99.90;;;;;;5108429;28;19918;-66
2023/09/04 11:47:30;;;;;;;;;;;17.30;99.90;;;;;;5113717;28;19919;-69
2023/09/04 11:49:57;;;;;;;;;;;17.30;99.90;;;;;;5112263;28;20424;-68
2023/09/04 11:52:28;;;;;;;;;;;17.20;99.90;;;;;;5112081;28;19908;-68
2023/09/04 11:54:55;;;;;;;;;;;17.10;99.90;;;;;;5111368;28;19943;-68
2023/09/04 11:57:22;;;;;;;;;;;17.10;99.90;;;;;;5111206;28;19908;-67
2023/09/04 11:59:49;;;;;;;;;;;17.10;99.90;;;;;;5098506;28;19961;-68
2023/09/04 12:02:16;;;;;;;;;;;17.00;99.90;;;;;;5113842;28;19919;-68
2023/09/04 12:04:45;;;;;;;;;;;16.90;99.90;;;;;;5114227;28;20018;-67
2023/09/04 12:07:13;;;;;;;;;;;17.00;99.90;;;;;;5104797;28;20387;-66
2023/09/04 12:09:41;;;;;;;;;;;16.90;99.90;;;;;;5109418;28;19931;-66
2023/09/04 12:12:09;;;;;;;;;;;16.80;99.90;;;;;;5112388;28;19908;-68
2023/09/04 12:14:43;;;;;;;;;;;16.90;99.90;;;;;;5113488;28;19912;-67
2023/09/04 12:17:11;;;;;;;;;;;16.80;99.90;;;;;;5109189;28;19919;-68
2023/09/04 12:19:38;;;;;;;;;;;16.80;99.90;;;;;;5111031;28;19907;-68
2023/09/04 12:22:12;;;;;;;;;;;16.70;99.90;;;;;;5112185;28;20006;-68
2023/09/04 12:24:39;;;;;;;;;;;16.70;99.90;;;;;;5096533;28;19911;-66
2023/09/04 12:27:09;;;;;;;;;;;16.70;99.90;;;;;;5113139;28;19961;-65
2023/09/04 12:29:39;;;;;;;;;;;16.70;99.90;;;;;;5117546;27;19908;-67
2023/09/04 12:32:11;;;;;;;;;;;16.70;99.90;;;;;;5119272;27;20275;-68
2023/09/04 12:34:38;;;;;;;;;;;16.60;99.90;;;;;;5117396;27;20049;-66
2023/09/04 12:37:04;;;;;;;;;;;16.60;99.90;;;;;;5129811;27;19914;-68
2023/09/04 12:39:31;;;;;;;;;;;16.60;99.90;;;;;;5103945;28;20311;-68
2023/09/04 12:42:00;;;;;;;;;;;16.60;99.90;;;;;;5108066;28;19912;-67
2023/09/04 12:44:27;;;;;;;;;;;16.60;99.90;;;;;;5101852;28;19916;-69
2023/09/04 12:46:53;;;;;;;;;;;16.50;99.90;;;;;;5112865;28;19920;-66
2023/09/04 12:49:20;;;;;;;;;;;16.50;99.90;;;;;;5101248;28;19935;-67
2023/09/04 12:51:47;;;;;;;;;;;16.50;99.90;;;;;;5100810;28;19923;-69
2023/09/04 12:54:14;;;;;;;;;;;16.50;99.90;;;;;;5092858;28;20338;-67
2023/09/04 12:56:41;;;;;;;;;;;16.40;99.90;;;;;;5093060;28;19908;-67
2023/09/04 12:59:08;;;;;;;;;;;16.50;99.90;;;;;;5097805;28;19912;-67
2023/09/04 13:01:34;;;;;;;;;;;16.40;99.90;;;;;;5112723;28;19912;-66
2023/09/04 13:04:03;;;;;;;;;;;16.40;99.90;;;;;;5113530;28;19908;-65
2023/09/04 13:06:32;;;;;;;;;;;16.40;99.90;;;;;;5112462;28;19908;-66
2023/09/04 13:08:58;;;;;;;;;;;16.30;99.90;;;;;;5110786;28;19958;-66
2023/09/04 13:11:25;;;;;;;;;;;16.20;99.90;;;;;;5097564;28;19999;-66
2023/09/04 13:13:52;;;;;;;;;;;16.20;99.90;;;;;;5110482;28;19915;-66
2023/09/04 13:16:18;;;;;;;;;;;16.20;99.90;;;;;;5112909;28;19911;-65
2023/09/04 13:18:45;;;;;;;;;;;16.10;99.90;;;;;;5113238;28;19911;-67
2023/09/04 13:21:12;;;;;;;;;;;16.10;99.90;;;;;;5112795;28;20356;-68
2023/09/04 13:23:38;;;;;;;;;;;16.00;99.90;;;;;;5094915;28;20307;-67
2023/09/04 13:26:05;;;;;;;;;;;16.00;99.90;;;;;;5112555;28;20041;-70
2023/09/04 13:28:32;;;;;;;;;;;16.00;99.90;;;;;;5112755;28;19947;-65
2023/09/04 13:31:00;;;;;;;;;;;16.00;99.90;;;;;;5112887;28;19908;-66
2023/09/04 13:33:27;;;;;;;;;;;15.90;99.90;;;;;;5112947;28;19912;-67
2023/09/04 13:35:53;;;;;;;;;;;15.90;99.90;;;;;;5113035;28;19908;-66
2023/09/04 13:38:20;;;;;;;;;;;15.80;99.90;;;;;;5096965;28;19912;-67
2023/09/04 13:40:47;;;;;;;;;;;15.80;99.90;;;;;;5092790;28;20003;-66
2023/09/04 13:43:13;;;;;;;;;;;15.80;99.90;;;;;;5109162;28;19918;-68
2023/09/04 13:45:40;;;;;;;;;;;15.80;99.90;;;;;;5112909;28;20403;-67
2023/09/04 13:48:07;;;;;;;;;;;15.70;99.90;;;;;;5094498;28;19984;-66
2023/09/04 13:50:33;;;;;;;;;;;15.70;99.90;;;;;;5094958;28;19912;-67
2023/09/04 13:53:00;;;;;;;;;;;15.60;99.90;;;;;;5092786;28;19908;-67
2023/09/04 13:55:26;;;;;;;;;;;15.60;99.90;;;;;;5092514;28;19951;-68
2023/09/04 13:57:53;;;;;;;;;;;15.60;99.90;;;;;;5095302;28;19912;-65
2023/09/04 14:00:20;;;;;;;;;;;15.50;99.90;;;;;;5104147;28;20372;-66
2023/09/04 14:02:48;;;;;;;;;;;15.50;99.90;;;;;;5116715;28;19919;-66
2023/09/04 14:05:18;;;;;;;;;;;15.50;99.90;;;;;;5100918;28;20430;-67
2023/09/04 14:07:44;;;;;;;;;;;15.50;99.90;;;;;;5096086;28;19916;-66
2023/09/04 14:10:11;;;;;;;;;;;15.50;99.90;;;;;;5114049;28;19919;-68
2023/09/04 14:12:38;;;;;;;;;;;15.50;99.90;;;;;;5116398;28;19911;-65
2023/09/04 14:15:05;;;;;;;;;;;15.40;99.90;;;;;;5110773;28;19919;-66
2023/09/04 14:17:32;;;;;;;;;;;15.40;99.90;;;;;;5095804;28;19912;-67
2023/09/04 14:19:58;;;;;;;;;;;15.40;99.90;;;;;;5106522;28;20416;-66